createdAt,value
2022-10-22T00:02:02.532Z,2.20
2022-10-22T00:05:30.541Z,1.93
2022-10-22T00:08:30.629Z,2.45
2022-10-22T00:12:03.667Z,2.47
2022-10-22T00:15:24.591Z,2.00
2022-10-22T00:18:43.610Z,1.95
2022-10-22T00:21:46.617Z,2.07
2022-10-22T00:24:59.600Z,2.10
2022-10-22T00:28:13.604Z,1.80
2022-10-22T00:31:28.668Z,2.05
2022-10-22T00:34:40.672Z,1.80
2022-10-22T00:38:02.675Z,1.97
2022-10-22T00:44:28.781Z,2.30
2022-10-22T00:47:44.675Z,2.20
2022-10-22T00:51:11.699Z,1.83
2022-10-22T00:54:24.724Z,2.00
2022-10-22T00:57:51.777Z,1.80
2022-10-22T01:01:06.803Z,1.90
2022-10-22T01:04:38.811Z,1.80
2022-10-22T01:07:50.739Z,1.70
2022-10-22T01:11:16.749Z,2.45
2022-10-22T01:14:28.792Z,1.90
2022-10-22T01:17:59.767Z,2.00
2022-10-22T01:21:29.750Z,2.10
2022-10-22T01:24:58.760Z,1.60
2022-10-22T01:28:11.795Z,1.90
2022-10-22T01:31:40.826Z,2.00
2022-10-22T01:34:55.929Z,2.10
2022-10-22T01:38:22.827Z,1.77
2022-10-22T01:41:40.815Z,1.67
2022-10-22T01:44:56.863Z,1.77
2022-10-22T01:48:12.976Z,1.70
2022-10-22T01:51:47.848Z,1.45
2022-10-22T01:55:02.886Z,2.20
2022-10-22T01:58:32.877Z,1.83
2022-10-22T02:01:48.875Z,1.67
2022-10-22T02:05:20.903Z,2.00
2022-10-22T02:08:36.009Z,2.40
2022-10-22T02:12:15.354Z,2.30
2022-10-22T02:15:18.945Z,1.67
2022-10-22T02:18:43.988Z,2.75
2022-10-22T02:21:57.974Z,1.90
2022-10-22T02:25:25.050Z,2.10
2022-10-22T02:28:40.010Z,2.77
2022-10-22T02:32:08.007Z,1.90
2022-10-22T02:35:23.014Z,1.60
2022-10-22T02:38:54.972Z,2.10
2022-10-22T02:42:07.081Z,1.80
2022-10-22T02:45:31.054Z,1.63
2022-10-22T02:48:34.073Z,1.53
2022-10-22T02:51:50.108Z,1.77
2022-10-22T02:55:10.076Z,1.80
2022-10-22T02:58:23.098Z,1.50
2022-10-22T03:01:26.110Z,2.23
2022-10-22T03:04:45.107Z,1.77
2022-10-22T03:07:48.144Z,1.57
2022-10-22T03:11:15.107Z,1.70
2022-10-22T03:14:18.197Z,1.60
2022-10-22T03:17:33.159Z,1.77
2022-10-22T03:20:34.128Z,1.57
2022-10-22T03:23:58.155Z,1.90
2022-10-22T03:27:11.181Z,1.63
2022-10-22T03:30:27.160Z,1.67
2022-10-22T03:33:30.201Z,2.55
2022-10-22T03:37:00.217Z,1.40
2022-10-22T03:40:18.220Z,1.50
2022-10-22T03:43:45.221Z,1.90
2022-10-22T03:46:51.239Z,1.60
2022-10-22T03:50:03.241Z,1.60
2022-10-22T03:53:06.267Z,1.63
2022-10-22T03:56:33.274Z,1.50
2022-10-22T03:59:50.293Z,1.75
2022-10-22T04:02:54.272Z,2.13
2022-10-22T04:06:06.327Z,1.80
2022-10-22T04:09:06.370Z,1.70
2022-10-22T04:12:24.343Z,1.80
2022-10-22T04:15:53.297Z,1.50
2022-10-22T04:19:17.334Z,2.70
2022-10-22T04:22:17.378Z,1.87
2022-10-22T04:25:33.356Z,2.40
2022-10-22T04:28:37.359Z,1.83
2022-10-22T04:32:03.420Z,2.15
2022-10-22T04:35:06.427Z,2.35
2022-10-22T04:38:21.427Z,2.13
2022-10-22T04:41:34.380Z,1.97
2022-10-22T04:44:49.418Z,1.73
2022-10-22T04:48:03.362Z,1.97
2022-10-22T04:51:32.423Z,1.90
2022-10-22T04:54:38.431Z,1.90
2022-10-22T04:57:54.435Z,2.85
2022-10-22T05:00:54.533Z,2.07
2022-10-22T05:04:32.485Z,1.53
2022-10-22T05:07:36.484Z,2.30
2022-10-22T05:10:57.527Z,2.57
2022-10-22T05:14:12.504Z,2.53
2022-10-22T05:17:25.522Z,2.80
2022-10-22T05:20:39.552Z,2.00
2022-10-22T05:24:07.520Z,2.63
2022-10-22T05:27:22.632Z,1.80
2022-10-22T05:30:35.566Z,2.53
2022-10-22T05:33:50.634Z,2.30
2022-10-22T05:37:19.595Z,2.97
2022-10-22T05:40:30.369Z,2.53
2022-10-22T05:43:35.672Z,2.00
2022-10-22T05:46:47.609Z,2.27
2022-10-22T05:49:59.600Z,2.27
2022-10-22T05:53:16.682Z,2.50
2022-10-22T05:56:50.506Z,3.10
2022-10-22T05:59:53.653Z,3.10
2022-10-22T06:02:56.633Z,2.67
2022-10-22T06:06:08.669Z,2.67
2022-10-22T06:09:25.672Z,2.43
2022-10-22T06:12:43.767Z,2.50
2022-10-22T06:15:43.679Z,3.23
2022-10-22T06:18:56.718Z,3.20
2022-10-22T06:22:11.799Z,3.47
2022-10-22T06:25:40.725Z,3.90
2022-10-22T06:29:01.761Z,2.83
2022-10-22T06:32:23.787Z,3.27
2022-10-22T06:35:29.789Z,3.20
2022-10-22T06:38:44.770Z,4.20
2022-10-22T06:41:58.782Z,4.00
2022-10-22T06:45:14.763Z,2.90
2022-10-22T06:48:18.774Z,3.50
2022-10-22T06:51:48.821Z,4.43
2022-10-22T06:54:51.803Z,3.35
2022-10-22T06:58:20.815Z,3.55
2022-10-22T07:01:35.873Z,4.00
2022-10-22T07:04:47.825Z,3.77
2022-10-22T07:07:50.867Z,4.00
2022-10-22T07:11:20.906Z,4.70
2022-10-22T07:14:34.886Z,4.03
2022-10-22T07:17:49.897Z,3.70
2022-10-22T07:20:52.879Z,3.60
2022-10-22T07:24:23.051Z,3.67
2022-10-22T07:27:22.876Z,3.93
2022-10-22T07:30:50.900Z,4.10
2022-10-22T07:34:05.948Z,3.85
2022-10-22T07:37:21.878Z,4.05
2022-10-22T07:40:25.955Z,3.15
2022-10-22T07:43:49.913Z,3.63
2022-10-22T07:47:03.025Z,4.00
2022-10-22T07:50:31.002Z,3.50
2022-10-22T07:53:33.976Z,3.55
2022-10-22T07:56:46.983Z,4.70
2022-10-22T07:59:50.053Z,3.95
2022-10-22T08:03:14.119Z,3.87
2022-10-22T08:06:44.518Z,4.07
2022-10-22T08:09:59.037Z,3.60
2022-10-22T08:13:17.026Z,3.33
2022-10-22T08:16:32.033Z,3.00
2022-10-22T08:19:58.051Z,2.90
2022-10-22T08:23:04.077Z,3.05
2022-10-22T08:26:20.111Z,3.17
2022-10-22T08:29:26.081Z,3.23
2022-10-22T08:32:49.254Z,3.25
2022-10-22T08:36:04.138Z,3.30
2022-10-22T08:39:19.134Z,4.10
2022-10-22T08:42:31.106Z,4.37
2022-10-22T08:46:02.168Z,3.87
2022-10-22T08:49:17.161Z,3.97
2022-10-22T08:52:49.175Z,4.10
2022-10-22T08:56:01.143Z,3.10
2022-10-22T08:59:29.184Z,3.23
2022-10-22T09:02:47.211Z,3.20
2022-10-22T09:06:11.206Z,2.73
2022-10-22T09:09:24.194Z,2.93
2022-10-22T09:12:48.218Z,3.30
2022-10-22T09:15:51.249Z,2.90
2022-10-22T09:19:17.287Z,2.67
2022-10-22T09:26:04.303Z,2.90
2022-10-22T09:29:25.262Z,2.80
2022-10-22T09:32:55.353Z,2.65
2022-10-22T09:36:10.295Z,2.70
2022-10-22T09:39:46.322Z,2.90
2022-10-22T09:43:00.293Z,2.67
2022-10-22T09:46:27.336Z,2.70
2022-10-22T09:49:39.320Z,2.20
2022-10-22T09:52:54.363Z,2.40
2022-10-22T09:56:06.316Z,2.83
2022-10-22T09:59:36.389Z,3.07
2022-10-22T10:02:48.363Z,2.30
2022-10-22T10:06:16.357Z,2.15
2022-10-22T10:09:31.393Z,2.93
2022-10-22T10:13:01.391Z,3.20
2022-10-22T10:16:15.422Z,2.60
2022-10-22T10:19:53.419Z,2.90
2022-10-22T10:23:09.441Z,2.77
2022-10-22T10:26:37.465Z,2.27
2022-10-22T10:29:52.446Z,2.80
2022-10-22T10:33:38.470Z,2.53
2022-10-22T10:36:51.476Z,2.10
2022-10-22T10:40:31.479Z,2.10
2022-10-22T10:43:58.607Z,2.90
2022-10-22T10:47:27.515Z,2.30
2022-10-22T10:50:42.557Z,2.70
2022-10-22T10:54:12.552Z,2.25
2022-10-22T10:57:28.577Z,2.20
2022-10-22T11:00:57.874Z,2.13
2022-10-22T11:04:18.558Z,2.37
2022-10-22T11:07:44.572Z,2.30
2022-10-22T11:11:03.704Z,2.40
2022-10-22T11:14:30.069Z,2.80
2022-10-22T11:17:40.626Z,2.47
2022-10-22T11:21:06.580Z,2.93
2022-10-22T11:24:20.610Z,1.80
2022-10-22T11:27:45.664Z,3.13
2022-10-22T11:30:57.757Z,1.97
2022-10-22T11:34:33.563Z,1.95
2022-10-22T11:37:40.870Z,2.00
2022-10-22T11:41:06.674Z,2.40
2022-10-22T11:44:33.661Z,2.30
2022-10-22T11:48:00.717Z,2.33
2022-10-22T11:51:15.712Z,2.50
2022-10-22T11:54:52.715Z,2.17
2022-10-22T11:58:16.762Z,2.03
2022-10-22T12:01:46.794Z,2.40
2022-10-22T12:05:04.766Z,2.60
2022-10-22T12:08:16.843Z,2.60
2022-10-22T12:11:44.766Z,2.27
2022-10-22T12:15:01.796Z,3.13
2022-10-22T12:18:30.006Z,2.50
2022-10-22T12:21:32.853Z,2.30
2022-10-22T12:24:59.836Z,2.40
2022-10-22T12:28:13.816Z,2.67
2022-10-22T12:31:41.828Z,2.70
2022-10-22T12:34:42.918Z,2.80
2022-10-22T12:38:09.880Z,2.70
2022-10-22T12:41:12.904Z,2.00
2022-10-22T12:44:42.897Z,2.70
2022-10-22T12:48:15.911Z,2.45
2022-10-22T12:51:45.894Z,2.43
2022-10-22T12:55:00.887Z,2.17
2022-10-22T12:58:12.919Z,2.30
2022-10-22T13:01:27.955Z,2.23
2022-10-22T13:04:48.930Z,1.90
2022-10-22T13:08:07.047Z,2.25
2022-10-22T13:11:25.917Z,2.30
2022-10-22T13:14:41.090Z,1.90
2022-10-22T13:17:56.969Z,2.60
2022-10-22T13:21:15.988Z,2.57
2022-10-22T13:24:46.069Z,2.40
2022-10-22T13:27:46.013Z,2.35
2022-10-22T13:31:17.080Z,2.40
2022-10-22T13:34:32.018Z,2.40
2022-10-22T13:37:47.090Z,2.27
2022-10-22T13:41:01.050Z,2.00
2022-10-22T13:44:16.114Z,1.60
2022-10-22T13:47:36.051Z,2.23
2022-10-22T13:50:48.045Z,2.07
2022-10-22T13:54:03.189Z,1.60
2022-10-22T13:57:37.081Z,1.90
2022-10-22T14:00:52.151Z,2.10
2022-10-22T14:04:11.104Z,1.80
2022-10-22T14:07:14.155Z,1.80
2022-10-22T14:10:41.126Z,1.90
2022-10-22T14:13:57.121Z,1.80
2022-10-22T14:17:09.102Z,1.83
2022-10-22T14:20:09.115Z,1.60
2022-10-22T14:23:40.164Z,1.80
2022-10-22T14:26:52.201Z,1.95
2022-10-22T14:30:20.181Z,1.90
2022-10-22T14:33:39.373Z,1.70
2022-10-22T14:37:06.271Z,1.57
2022-10-22T14:40:06.280Z,1.43
2022-10-22T14:43:36.211Z,1.40
2022-10-22T14:46:56.237Z,1.97
2022-10-22T14:50:09.268Z,2.00
2022-10-22T14:53:10.327Z,1.73
2022-10-22T14:59:55.355Z,1.40
2022-10-22T15:03:30.341Z,1.40
2022-10-22T15:06:33.292Z,0.83
2022-10-22T15:09:49.340Z,1.10
2022-10-22T15:13:04.364Z,1.10
2022-10-22T15:16:35.366Z,1.47
2022-10-22T15:19:49.337Z,1.37
2022-10-22T15:23:05.373Z,1.17
2022-10-22T15:26:05.358Z,2.10
2022-10-22T15:29:21.404Z,1.27
2022-10-22T15:32:36.404Z,1.90
2022-10-22T15:36:09.483Z,1.70
2022-10-22T15:39:13.429Z,1.70
2022-10-22T15:42:40.641Z,1.37
2022-10-22T15:45:52.457Z,1.27
2022-10-22T15:49:08.523Z,1.70
2022-10-22T15:52:22.482Z,1.30
2022-10-22T15:55:37.472Z,2.17
2022-10-22T15:58:37.463Z,1.77
2022-10-22T16:02:04.491Z,1.43
2022-10-22T16:05:21.527Z,1.57
2022-10-22T16:08:35.626Z,1.15
2022-10-22T16:12:00.518Z,1.23
2022-10-22T16:15:14.572Z,1.37
2022-10-22T16:18:29.527Z,2.17
2022-10-22T16:21:44.551Z,1.40
2022-10-22T16:25:12.559Z,1.27
2022-10-22T16:28:18.576Z,1.00
2022-10-22T16:31:34.571Z,1.20
2022-10-22T16:34:50.621Z,0.90
2022-10-22T16:38:08.657Z,1.57
2022-10-22T16:41:32.644Z,0.83
2022-10-22T16:44:44.600Z,1.03
2022-10-22T16:47:44.644Z,1.30
2022-10-22T16:50:59.650Z,1.17
2022-10-22T16:54:15.703Z,1.10
2022-10-22T16:57:44.680Z,1.30
2022-10-22T17:00:47.783Z,1.07
2022-10-22T17:04:02.688Z,1.10
2022-10-22T17:07:17.657Z,1.03
2022-10-22T17:10:42.704Z,1.60
2022-10-22T17:13:58.823Z,1.43
2022-10-22T17:17:10.717Z,1.20
2022-10-22T17:20:25.726Z,1.70
2022-10-22T17:23:49.798Z,1.50
2022-10-22T17:30:34.766Z,1.45
2022-10-22T17:33:37.764Z,1.37
2022-10-22T17:36:52.795Z,1.30
2022-10-22T17:39:55.772Z,1.70
2022-10-22T17:43:16.785Z,0.83
2022-10-22T17:46:36.885Z,1.33
2022-10-22T17:50:01.828Z,1.10
2022-10-22T17:53:01.905Z,1.13
2022-10-22T17:56:31.960Z,1.90
2022-10-22T17:59:34.860Z,1.80
2022-10-22T18:03:04.887Z,1.30
2022-10-22T18:06:30.897Z,1.87
2022-10-22T18:09:45.875Z,1.20
2022-10-22T18:13:09.931Z,1.80
2022-10-22T18:16:27.910Z,1.40
2022-10-22T18:19:59.929Z,1.93
2022-10-22T18:23:03.020Z,1.60
2022-10-22T18:26:30.952Z,1.63
2022-10-22T18:29:33.959Z,2.05
2022-10-22T18:33:03.985Z,1.90
2022-10-22T18:36:21.008Z,1.63
2022-10-22T18:39:39.040Z,1.97
2022-10-22T18:42:42.470Z,2.30
2022-10-22T18:46:12.012Z,2.00
2022-10-22T18:49:15.006Z,2.20
2022-10-22T18:52:45.066Z,2.43
2022-10-22T18:56:02.991Z,2.30
2022-10-22T18:59:18.047Z,2.03
2022-10-22T19:02:37.047Z,2.20
2022-10-22T19:06:09.241Z,2.40
2022-10-22T19:09:27.073Z,3.20
2022-10-22T19:12:43.063Z,2.15
2022-10-22T19:15:49.071Z,2.27
2022-10-22T19:19:16.118Z,2.00
2022-10-22T19:22:28.144Z,3.00
2022-10-22T19:26:04.125Z,2.65
2022-10-22T19:29:19.147Z,2.10
2022-10-22T19:32:34.125Z,2.20
2022-10-22T19:35:46.126Z,2.60
2022-10-22T19:39:19.131Z,2.97
2022-10-22T19:42:41.492Z,2.50
2022-10-22T19:45:57.181Z,2.50
2022-10-22T19:49:04.131Z,2.00
2022-10-22T19:52:28.244Z,3.10
2022-10-22T19:55:28.431Z,2.87
2022-10-22T19:59:00.235Z,2.40
2022-10-22T20:02:06.201Z,2.07
2022-10-22T20:05:25.260Z,2.40
2022-10-22T20:08:28.269Z,2.40
2022-10-22T20:11:44.248Z,2.73
2022-10-22T20:15:01.241Z,3.23
2022-10-22T20:18:24.935Z,3.50
2022-10-22T20:21:37.237Z,2.90
2022-10-22T20:24:50.301Z,2.00
2022-10-22T20:28:02.299Z,2.67
2022-10-22T20:31:28.420Z,2.23
2022-10-22T20:34:31.420Z,2.70
2022-10-22T20:37:45.357Z,2.55
2022-10-22T20:40:45.346Z,2.40
2022-10-22T20:44:14.346Z,2.40
2022-10-22T20:47:44.305Z,2.63
2022-10-22T20:50:58.500Z,2.27
2022-10-22T20:54:01.356Z,2.33
2022-10-22T20:57:25.403Z,2.37
2022-10-22T21:00:40.563Z,2.40
2022-10-22T21:04:10.445Z,2.67
2022-10-22T21:07:15.459Z,2.30
2022-10-22T21:10:32.546Z,2.50
2022-10-22T21:13:33.471Z,2.67
2022-10-22T21:17:04.485Z,2.63
2022-10-22T21:20:24.938Z,3.10
2022-10-22T21:23:40.647Z,2.75
2022-10-22T21:26:40.489Z,2.93
2022-10-22T21:30:11.520Z,2.90
2022-10-22T21:33:11.520Z,2.80
2022-10-22T21:39:46.522Z,7.35
2022-10-22T21:43:14.598Z,3.13
2022-10-22T21:46:30.504Z,3.45
2022-10-22T21:49:57.566Z,3.67
2022-10-22T21:53:11.555Z,4.30
2022-10-22T21:56:37.565Z,5.00
2022-10-22T21:59:37.586Z,3.80
2022-10-22T22:02:52.590Z,3.90
2022-10-22T22:06:21.985Z,3.80
2022-10-22T22:09:38.658Z,3.83
2022-10-22T22:12:56.768Z,3.43
2022-10-22T22:16:02.745Z,3.43
2022-10-22T22:19:27.683Z,3.93
2022-10-22T22:22:27.675Z,3.80
2022-10-22T22:25:57.736Z,3.65
2022-10-22T22:29:06.691Z,3.60
2022-10-22T22:32:24.675Z,3.75
2022-10-22T22:35:24.719Z,3.33
2022-10-22T22:38:51.711Z,3.67
2022-10-22T22:42:08.701Z,5.07
2022-10-22T22:45:35.850Z,3.60
2022-10-22T22:48:38.719Z,3.20
2022-10-22T22:52:05.818Z,3.33
2022-10-22T22:55:11.836Z,3.30
2022-10-22T22:58:38.767Z,3.83
2022-10-22T23:01:50.942Z,3.25
2022-10-22T23:05:06.818Z,3.10
2022-10-22T23:08:10.821Z,3.40
2022-10-22T23:11:38.835Z,5.00
2022-10-22T23:14:55.858Z,3.40
2022-10-22T23:18:14.905Z,5.70
2022-10-22T23:21:29.949Z,3.80
2022-10-22T23:24:56.921Z,4.10
2022-10-22T23:27:56.885Z,5.67
2022-10-22T23:31:25.932Z,3.70
2022-10-22T23:34:40.869Z,4.07
2022-10-22T23:37:59.956Z,3.35
2022-10-22T23:40:59.945Z,3.80
2022-10-22T23:44:27.914Z,4.03
2022-10-22T23:47:42.318Z,3.40
2022-10-22T23:50:57.918Z,4.03
2022-10-22T23:54:09.981Z,3.60
2022-10-22T23:57:21.937Z,3.53
